createdAt,value
2022-10-12T00:01:12.017Z,55515.59
2022-10-12T00:03:42.601Z,55517.59
2022-10-12T00:06:12.698Z,55499.69
2022-10-12T00:08:43.932Z,55440.00
2022-10-12T00:11:17.714Z,55445.97
2022-10-12T00:13:46.513Z,55541.47
2022-10-12T00:16:17.241Z,55551.41
2022-10-12T00:18:45.847Z,55615.06
2022-10-12T00:21:16.445Z,55575.28
2022-10-12T00:23:46.042Z,55551.41
2022-10-12T00:26:18.758Z,55523.56
2022-10-12T00:28:47.446Z,55652.84
2022-10-12T00:31:18.748Z,55609.09
2022-10-12T00:33:47.737Z,55621.03
2022-10-12T00:36:18.689Z,55702.59
2022-10-12T00:38:50.170Z,55672.75
2022-10-12T00:41:22.737Z,55768.25
2022-10-12T00:43:56.818Z,55823.94
2022-10-12T00:46:31.982Z,55873.69
2022-10-12T00:49:11.428Z,55883.63
2022-10-12T00:51:42.423Z,55961.22
2022-10-12T00:54:15.330Z,56108.44
2022-10-12T00:56:48.045Z,56307.41
2022-10-12T00:59:22.191Z,56160.19
2022-10-12T01:01:51.201Z,56197.97
2022-10-12T01:04:19.741Z,56160.19
2022-10-12T01:06:48.345Z,56203.94
2022-10-12T01:09:17.037Z,56194.00
2022-10-12T01:11:46.895Z,56196.00
2022-10-12T01:14:15.687Z,56379.03
2022-10-12T01:16:53.720Z,56609.84
2022-10-12T01:19:43.516Z,56422.81
2022-10-12T01:22:16.891Z,56506.38
2022-10-12T01:24:53.787Z,56548.16
2022-10-12T01:27:47.094Z,56896.41
2022-10-12T01:30:21.946Z,57037.72
2022-10-12T01:33:11.363Z,57103.38
2022-10-12T01:35:51.373Z,57314.34
2022-10-12T01:38:31.513Z,57206.88
2022-10-12T01:41:06.419Z,56733.22
2022-10-12T01:43:36.716Z,56530.25
2022-10-12T01:46:45.751Z,56492.47
2022-10-12T01:49:17.031Z,56506.38
2022-10-12T01:52:14.870Z,56446.69
2022-10-12T01:55:01.053Z,56518.31
2022-10-12T01:57:38.876Z,56623.78
2022-10-12T02:00:10.164Z,56436.75
2022-10-12T02:02:50.993Z,56470.56
2022-10-12T02:05:29.071Z,56526.28
2022-10-12T02:08:04.517Z,56761.09
2022-10-12T02:10:40.468Z,56830.75
2022-10-12T02:13:14.475Z,56832.72
2022-10-12T02:15:45.299Z,56852.63
2022-10-12T02:18:18.943Z,56980.00
2022-10-12T02:20:51.108Z,57135.22
2022-10-12T02:23:24.187Z,57163.09
2022-10-12T02:25:54.260Z,56932.22
2022-10-12T02:28:25.673Z,56828.75
2022-10-12T02:31:01.311Z,56673.53
2022-10-12T02:33:36.959Z,56733.22
2022-10-12T02:36:10.943Z,56987.97
2022-10-12T02:38:44.297Z,57571.09
2022-10-12T02:41:18.239Z,57521.34
2022-10-12T02:43:51.860Z,57318.34
2022-10-12T02:46:24.054Z,57421.81
2022-10-12T02:48:56.749Z,57523.34
2022-10-12T02:51:25.871Z,57931.41
2022-10-12T02:53:54.791Z,57831.88
2022-10-12T02:56:23.390Z,57881.63
2022-10-12T02:58:52.020Z,57843.81
2022-10-12T03:01:21.336Z,57869.69
2022-10-12T03:03:49.910Z,58140.44
2022-10-12T03:06:20.815Z,57925.44
2022-10-12T03:08:49.209Z,58150.38
2022-10-12T03:11:17.634Z,58570.47
2022-10-12T03:13:45.995Z,58761.59
2022-10-12T03:16:14.302Z,58295.72
2022-10-12T03:18:42.765Z,58500.78
2022-10-12T03:21:11.810Z,58104.59
2022-10-12T03:23:41.931Z,57648.75
2022-10-12T03:26:10.375Z,57485.53
2022-10-12T03:28:39.004Z,57272.56
2022-10-12T03:31:08.137Z,57483.53
2022-10-12T03:33:36.506Z,57157.13
2022-10-12T03:36:05.221Z,57113.34
2022-10-12T03:38:33.583Z,56997.91
2022-10-12T03:41:06.704Z,57085.47
2022-10-12T03:43:36.277Z,57290.47
2022-10-12T03:46:04.783Z,57077.50
2022-10-12T03:48:33.325Z,56932.22
2022-10-12T03:51:01.955Z,56613.84
2022-10-12T03:53:31.325Z,56593.94
2022-10-12T03:55:59.899Z,56928.25
2022-10-12T03:58:29.785Z,56908.34
2022-10-12T04:00:58.190Z,56661.59
2022-10-12T04:03:26.714Z,56952.13
2022-10-12T04:05:55.902Z,56669.56
2022-10-12T04:08:24.816Z,56526.28
2022-10-12T04:10:53.224Z,56460.63
2022-10-12T04:13:21.622Z,56554.13
2022-10-12T04:15:51.485Z,56613.84
2022-10-12T04:18:20.030Z,56759.09
2022-10-12T04:20:49.983Z,56777.00
2022-10-12T04:23:18.455Z,56715.31
2022-10-12T04:25:47.453Z,56389.00
2022-10-12T04:28:15.908Z,56335.25
2022-10-12T04:30:44.471Z,56329.28
2022-10-12T04:33:14.306Z,56209.91
2022-10-12T04:35:42.785Z,56438.72
2022-10-12T04:38:13.075Z,56661.59
2022-10-12T04:40:41.473Z,56279.56
2022-10-12T04:43:09.725Z,56104.47
2022-10-12T04:45:38.172Z,56152.22
2022-10-12T04:48:06.758Z,55947.28
2022-10-12T04:50:36.686Z,55903.53
2022-10-12T04:53:05.013Z,55959.22
2022-10-12T04:55:33.581Z,56100.47
2022-10-12T04:58:01.958Z,56530.25
2022-10-12T05:00:30.320Z,56653.63
2022-10-12T05:02:58.771Z,56327.31
2022-10-12T05:05:27.646Z,56010.97
2022-10-12T05:07:57.440Z,55835.88
2022-10-12T05:10:26.080Z,55925.41
2022-10-12T05:12:54.757Z,56028.84
2022-10-12T05:15:23.128Z,55889.59
2022-10-12T05:17:51.776Z,56192.00
2022-10-12T05:20:20.204Z,56211.91
2022-10-12T05:22:48.587Z,56074.63
2022-10-12T05:25:19.502Z,56176.09
2022-10-12T05:27:47.962Z,56088.53
2022-10-12T05:30:16.796Z,56034.81
2022-10-12T05:32:45.183Z,56313.38
2022-10-12T05:35:13.682Z,56182.06
2022-10-12T05:37:42.199Z,56299.44
2022-10-12T05:40:11.592Z,56160.19
2022-10-12T05:42:41.620Z,56108.44
2022-10-12T05:45:11.420Z,55977.13
2022-10-12T05:47:40.085Z,55961.22
2022-10-12T05:50:09.769Z,55941.31
2022-10-12T05:52:38.277Z,55977.13
2022-10-12T05:55:07.899Z,56062.69
2022-10-12T05:57:36.717Z,56124.34
2022-10-12T06:00:08.717Z,56197.97
2022-10-12T06:02:40.010Z,56355.16
2022-10-12T06:05:09.155Z,56160.19
2022-10-12T06:07:37.620Z,56199.97
2022-10-12T06:10:07.057Z,56420.81
2022-10-12T06:12:37.894Z,56414.84
2022-10-12T06:15:09.749Z,56478.53
2022-10-12T06:17:38.538Z,56729.25
2022-10-12T06:20:07.923Z,56852.63
2022-10-12T06:22:36.962Z,56910.34
2022-10-12T06:25:06.162Z,56816.81
2022-10-12T06:27:34.710Z,56928.25
2022-10-12T06:30:03.157Z,57001.88
2022-10-12T06:32:33.607Z,57300.41
2022-10-12T06:35:01.961Z,57648.75
2022-10-12T06:37:49.089Z,57718.41
2022-10-12T06:40:19.728Z,58070.75
2022-10-12T06:42:49.481Z,58381.31
2022-10-12T06:45:18.750Z,58986.63
2022-10-12T06:47:48.622Z,59173.81
2022-10-12T06:50:17.191Z,59524.31
2022-10-12T06:52:45.624Z,60082.00
2022-10-12T06:55:13.942Z,60323.03
2022-10-12T06:57:42.422Z,60741.38
2022-10-12T07:00:12.607Z,61137.88
2022-10-12T07:02:41.323Z,61687.88
2022-10-12T07:05:11.400Z,62289.75
2022-10-12T07:07:39.781Z,62983.47
2022-10-12T07:10:08.858Z,63585.59
2022-10-12T07:12:38.488Z,64660.53
2022-10-12T07:15:08.534Z,65677.91
2022-10-12T07:17:37.484Z,66286.50
2022-10-12T07:20:07.758Z,66248.59
2022-10-12T07:22:37.715Z,66905.19
2022-10-12T07:25:06.936Z,68354.53
2022-10-12T07:27:36.471Z,69948.31
2022-10-12T07:30:05.647Z,70931.31
2022-10-12T07:32:34.295Z,72210.47
2022-10-12T07:35:02.769Z,73490.06
2022-10-12T07:37:31.240Z,75026.22
2022-10-12T07:40:01.073Z,76050.72
2022-10-12T07:42:29.402Z,77331.78
2022-10-12T07:44:57.898Z,78356.94
2022-10-12T07:47:26.600Z,79126.03
2022-10-12T07:49:54.940Z,80151.75
2022-10-12T07:52:23.388Z,80664.72
2022-10-12T07:54:52.600Z,81690.91
2022-10-12T07:57:22.308Z,82717.38
2022-10-12T07:59:50.811Z,83744.16
2022-10-12T08:02:19.143Z,84514.44
2022-10-12T08:04:47.715Z,85028.06
2022-10-12T08:07:16.460Z,85028.06
2022-10-12T08:09:45.020Z,84257.66
2022-10-12T08:12:13.489Z,85028.06
2022-10-12T08:14:43.520Z,84257.66
2022-10-12T08:17:11.957Z,83230.72
2022-10-12T08:19:40.369Z,83744.16
2022-10-12T08:22:08.948Z,84257.66
2022-10-12T08:24:37.490Z,82717.38
2022-10-12T08:27:05.953Z,82204.09
2022-10-12T08:29:34.281Z,81690.91
2022-10-12T08:32:04.113Z,80408.22
2022-10-12T08:34:32.607Z,80408.22
2022-10-12T08:37:00.987Z,79895.28
2022-10-12T08:39:29.296Z,78613.28
2022-10-12T08:42:10.386Z,77844.31
2022-10-12T08:45:02.899Z,76563.09
2022-10-12T08:47:41.530Z,75538.44
2022-10-12T08:50:18.677Z,74770.16
2022-10-12T08:52:53.793Z,72722.25
2022-10-12T08:55:32.177Z,72466.34
2022-10-12T08:58:00.524Z,68374.50
2022-10-12T09:00:31.408Z,68430.41
2022-10-12T09:03:15.313Z,67939.22
2022-10-12T09:05:48.318Z,66905.19
2022-10-12T09:08:29.180Z,65199.09
2022-10-12T09:11:09.880Z,64909.84
2022-10-12T09:13:48.404Z,64036.25
2022-10-12T09:16:24.134Z,63990.41
2022-10-12T09:18:57.945Z,63798.97
2022-10-12T09:21:29.545Z,63557.69
2022-10-12T09:23:58.954Z,62116.34
2022-10-12T09:26:35.937Z,61843.31
2022-10-12T09:29:15.504Z,61191.69
2022-10-12T09:32:06.225Z,60438.56
2022-10-12T09:34:36.755Z,59446.63
2022-10-12T09:37:06.133Z,58373.34
2022-10-12T09:39:38.295Z,58664.03
2022-10-12T09:42:06.820Z,56980.00
2022-10-12T09:44:40.421Z,56846.66
2022-10-12T09:47:28.346Z,56802.88
2022-10-12T09:49:59.753Z,56522.31
2022-10-12T09:52:32.074Z,56315.38
2022-10-12T09:55:05.144Z,56108.44
2022-10-12T09:57:37.428Z,55865.72
2022-10-12T10:00:20.512Z,55646.88
2022-10-12T10:02:50.639Z,55266.94
2022-10-12T10:05:27.406Z,55026.28
2022-10-12T10:08:18.921Z,54654.38
2022-10-12T10:10:51.715Z,54604.66
2022-10-12T10:13:21.961Z,54624.53
2022-10-12T10:15:53.141Z,54533.06
2022-10-12T10:18:25.915Z,54525.09
2022-10-12T10:20:59.057Z,54541.00
2022-10-12T10:23:30.524Z,54411.75
2022-10-12T10:26:05.550Z,54389.88
2022-10-12T10:28:35.168Z,54326.25
2022-10-12T10:31:06.453Z,54350.09
2022-10-12T10:33:36.445Z,54294.41
2022-10-12T10:36:16.657Z,54208.91
2022-10-12T10:38:57.512Z,54230.78
2022-10-12T10:41:28.625Z,54206.94
2022-10-12T10:43:57.368Z,54109.50
2022-10-12T10:46:27.991Z,54051.81
2022-10-12T10:49:01.375Z,54020.00
2022-10-12T10:51:50.066Z,53980.25
2022-10-12T10:54:27.804Z,53980.25
2022-10-12T10:57:01.222Z,53980.25
2022-10-12T10:59:41.749Z,53956.38
2022-10-12T11:02:32.942Z,53930.53
2022-10-12T11:05:07.353Z,53914.63
2022-10-12T11:07:44.162Z,53900.72
2022-10-12T11:10:23.259Z,53841.06
2022-10-12T11:12:56.528Z,53767.50
2022-10-12T11:15:31.023Z,53757.56
2022-10-12T11:18:09.308Z,53763.53
2022-10-12T11:20:52.910Z,53741.66
2022-10-12T11:23:31.042Z,53687.97
2022-10-12T11:26:12.626Z,53670.09
2022-10-12T11:28:42.403Z,53737.69
2022-10-12T11:31:21.271Z,53687.97
2022-10-12T11:33:51.464Z,53682.00
2022-10-12T11:36:23.849Z,53709.84
2022-10-12T11:39:05.918Z,53709.84
2022-10-12T11:42:03.314Z,53693.94
2022-10-12T11:44:42.409Z,53678.03
2022-10-12T11:47:18.746Z,53707.84
2022-10-12T11:49:55.438Z,53666.09
2022-10-12T11:52:29.059Z,53666.09
2022-10-12T11:55:08.325Z,53682.00
2022-10-12T11:57:39.730Z,53670.09
2022-10-12T12:00:19.646Z,53610.44
2022-10-12T12:02:54.313Z,53616.41
2022-10-12T12:05:22.958Z,53602.47
2022-10-12T12:07:54.093Z,53630.31
2022-10-12T12:11:05.721Z,53578.63
2022-10-12T12:13:34.410Z,53574.66
2022-10-12T12:16:36.726Z,53562.72
2022-10-12T12:19:36.071Z,53580.63
2022-10-12T12:22:26.385Z,53550.78
2022-10-12T12:25:14.424Z,53558.75
2022-10-12T12:27:46.508Z,53546.81
2022-10-12T12:30:32.957Z,53499.09
2022-10-12T12:33:04.294Z,53495.13
2022-10-12T12:35:38.269Z,53491.16
2022-10-12T12:38:21.775Z,53453.38
2022-10-12T12:41:03.831Z,53439.47
2022-10-12T12:43:58.907Z,53469.28
2022-10-12T12:50:02.395Z,53425.53
2022-10-12T12:52:34.540Z,53457.34
2022-10-12T12:55:25.722Z,53431.50
2022-10-12T12:58:20.876Z,53427.53
2022-10-12T13:01:00.972Z,53401.69
2022-10-12T13:03:47.555Z,53427.53
2022-10-12T13:06:47.122Z,53415.59
2022-10-12T13:09:40.587Z,53415.59
2022-10-12T13:12:22.585Z,53425.53
2022-10-12T13:15:18.869Z,53401.69
2022-10-12T13:18:28.411Z,53421.56
2022-10-12T13:21:01.888Z,53419.59
2022-10-12T13:23:31.736Z,53467.28
2022-10-12T13:26:04.261Z,53423.56
2022-10-12T13:28:37.248Z,53475.25
2022-10-12T13:31:10.654Z,53463.31
2022-10-12T13:33:45.695Z,53465.31
2022-10-12T13:36:21.826Z,53465.31
2022-10-12T13:38:59.631Z,53471.28
2022-10-12T13:41:30.614Z,53475.25
2022-10-12T13:44:00.627Z,53465.31
2022-10-12T13:46:42.306Z,53467.28
2022-10-12T13:49:16.632Z,53437.47
2022-10-12T13:51:46.865Z,53423.56
2022-10-12T13:54:23.264Z,53467.28
2022-10-12T13:56:56.801Z,53469.28
2022-10-12T13:59:28.534Z,53441.44
2022-10-12T14:02:00.827Z,53469.28
2022-10-12T14:04:30.769Z,53471.28
2022-10-12T14:07:03.218Z,53421.56
2022-10-12T14:09:41.836Z,53451.38
2022-10-12T14:12:11.882Z,53443.44
2022-10-12T14:14:44.067Z,53435.47
2022-10-12T14:17:16.125Z,53463.31
2022-10-12T14:19:48.125Z,53419.59
2022-10-12T14:22:22.933Z,53367.91
2022-10-12T14:25:12.155Z,53399.69
2022-10-12T14:27:41.453Z,53419.59
2022-10-12T14:30:19.264Z,53411.63
2022-10-12T14:32:48.545Z,53403.69
2022-10-12T14:35:26.141Z,53427.53
2022-10-12T14:37:56.302Z,53395.72
2022-10-12T14:40:33.525Z,53441.44
2022-10-12T14:43:05.180Z,53379.81
2022-10-12T14:45:34.902Z,53395.72
2022-10-12T14:48:05.144Z,53403.69
2022-10-12T14:50:34.473Z,53419.59
2022-10-12T14:53:06.731Z,53415.59
2022-10-12T14:55:36.586Z,53413.63
2022-10-12T14:58:08.234Z,53431.50
2022-10-12T15:00:38.710Z,53447.41
2022-10-12T15:03:07.445Z,53445.44
2022-10-12T15:05:36.203Z,53447.41
2022-10-12T15:08:09.093Z,53455.38
2022-10-12T15:10:39.081Z,53475.25
2022-10-12T15:13:07.551Z,53467.28
2022-10-12T15:15:39.777Z,53437.47
2022-10-12T15:18:08.328Z,53475.25
2022-10-12T15:20:37.048Z,53455.38
2022-10-12T15:23:06.174Z,53445.44
2022-10-12T15:25:45.327Z,53467.28
2022-10-12T15:28:13.965Z,53423.56
2022-10-12T15:30:57.995Z,53467.28
2022-10-12T15:33:31.574Z,53445.44
2022-10-12T15:36:00.347Z,53483.19
2022-10-12T15:38:28.820Z,53511.03
2022-10-12T15:40:59.153Z,53493.13
2022-10-12T15:43:27.811Z,53475.25
2022-10-12T15:45:57.203Z,53487.19
2022-10-12T15:48:27.853Z,53507.06
2022-10-12T15:50:56.206Z,53503.06
2022-10-12T15:53:27.485Z,53501.09
2022-10-12T15:55:57.056Z,53542.84
2022-10-12T15:58:26.831Z,53513.03
2022-10-12T16:00:56.637Z,53515.00
2022-10-12T16:03:28.040Z,53526.94
2022-10-12T16:05:56.403Z,53550.78
2022-10-12T16:08:25.371Z,53552.78
2022-10-12T16:10:53.985Z,53546.81
2022-10-12T16:13:22.509Z,53552.78
2022-10-12T16:15:52.269Z,53614.41
2022-10-12T16:18:20.691Z,53620.38
2022-10-12T16:20:53.592Z,53646.22
2022-10-12T16:23:24.822Z,53662.13
2022-10-12T16:25:53.825Z,53658.16
2022-10-12T16:28:23.870Z,53652.19
2022-10-12T16:30:54.793Z,53689.97
2022-10-12T16:33:23.170Z,53701.88
2022-10-12T16:35:51.561Z,53715.81
2022-10-12T16:38:21.047Z,53731.72
2022-10-12T16:40:50.275Z,53747.63
2022-10-12T16:43:19.551Z,53793.34
2022-10-12T16:45:57.252Z,53795.34
2022-10-12T16:48:25.764Z,53835.09
2022-10-12T16:50:54.329Z,53807.25
2022-10-12T16:53:22.881Z,53821.19
2022-10-12T16:55:51.389Z,53876.84
2022-10-12T16:58:19.939Z,53884.81
2022-10-12T17:00:48.547Z,53916.63
2022-10-12T17:03:18.447Z,53938.50
2022-10-12T17:05:46.965Z,53950.44
2022-10-12T17:08:15.867Z,53960.38
2022-10-12T17:10:45.674Z,53980.25
2022-10-12T17:13:14.866Z,53988.19
2022-10-12T17:15:43.621Z,53996.16
2022-10-12T17:18:12.179Z,54039.91
2022-10-12T17:20:42.390Z,54047.84
2022-10-12T17:23:11.076Z,54091.59
2022-10-12T17:25:39.907Z,54063.75
2022-10-12T17:28:09.074Z,54125.41
2022-10-12T17:30:39.045Z,54127.38
2022-10-12T17:33:07.685Z,54157.22
2022-10-12T17:35:42.192Z,54163.19
2022-10-12T17:38:10.760Z,54173.13
2022-10-12T17:40:40.048Z,54167.16
2022-10-12T17:43:08.878Z,54198.97
2022-10-12T17:45:40.823Z,54204.94
2022-10-12T17:48:09.447Z,54230.78
2022-10-12T17:50:43.874Z,54234.75
2022-10-12T17:53:13.124Z,54254.66
2022-10-12T17:55:48.668Z,54236.75
2022-10-12T17:58:17.705Z,54288.44
2022-10-12T18:00:46.820Z,54290.44
2022-10-12T18:03:15.307Z,54368.00
2022-10-12T18:05:45.153Z,54346.13
2022-10-12T18:08:13.679Z,54366.00
2022-10-12T18:10:42.251Z,54366.00
2022-10-12T18:13:11.258Z,54405.78
2022-10-12T18:15:43.561Z,54417.72
2022-10-12T18:18:15.245Z,54425.66
2022-10-12T18:20:47.042Z,54415.72
2022-10-12T18:23:15.742Z,54443.56
2022-10-12T18:25:46.615Z,54417.72
2022-10-12T18:28:16.181Z,54509.19
2022-10-12T18:30:50.788Z,54485.31
2022-10-12T18:33:19.758Z,54588.75
2022-10-12T18:35:49.860Z,54501.22
2022-10-12T18:38:18.581Z,54461.47
2022-10-12T18:40:48.061Z,54562.88
2022-10-12T18:43:16.465Z,54662.31
2022-10-12T18:45:45.670Z,54759.78
2022-10-12T18:48:15.184Z,55253.03
2022-10-12T18:50:43.975Z,55177.44
2022-10-12T18:53:14.252Z,55081.97
2022-10-12T18:55:42.575Z,55107.81
2022-10-12T18:58:10.989Z,55223.19
2022-10-12T19:00:41.283Z,55314.69
2022-10-12T19:03:12.749Z,55388.28
2022-10-12T19:05:41.440Z,55493.72
2022-10-12T19:08:10.017Z,55605.13
2022-10-12T19:10:42.424Z,55603.13
2022-10-12T19:13:11.033Z,55730.44
2022-10-12T19:15:40.024Z,55702.59
2022-10-12T19:18:08.582Z,55877.66
2022-10-12T19:20:38.396Z,55766.25
2022-10-12T19:23:06.878Z,55764.25
2022-10-12T19:25:38.555Z,55825.94
2022-10-12T19:28:08.539Z,55754.31
2022-10-12T19:30:39.161Z,55625.00
2022-10-12T19:33:07.635Z,55567.31
2022-10-12T19:35:39.285Z,55597.16
2022-10-12T19:38:07.885Z,55630.97
2022-10-12T19:40:37.704Z,55658.81
2022-10-12T19:43:06.996Z,55650.88
2022-10-12T19:45:40.996Z,55595.16
2022-10-12T19:48:10.276Z,55603.13
2022-10-12T19:50:38.886Z,55573.28
2022-10-12T19:53:07.420Z,55501.66
2022-10-12T19:55:39.239Z,55467.84
2022-10-12T19:58:08.438Z,55567.31
2022-10-12T20:00:38.038Z,55547.44
2022-10-12T20:03:08.003Z,55457.91
2022-10-12T20:05:36.642Z,55394.25
2022-10-12T20:08:05.402Z,55404.19
2022-10-12T20:10:34.152Z,55442.00
2022-10-12T20:13:02.995Z,55511.63
2022-10-12T20:15:32.129Z,55513.59
2022-10-12T20:18:00.894Z,55414.16
2022-10-12T20:20:30.655Z,55346.50
2022-10-12T20:22:59.179Z,55422.09
2022-10-12T20:25:27.537Z,55485.75
2022-10-12T20:27:55.965Z,55443.97
2022-10-12T20:30:27.582Z,55342.53
2022-10-12T20:33:00.863Z,55372.38
2022-10-12T20:35:31.044Z,55336.56
2022-10-12T20:37:59.679Z,55386.28
2022-10-12T20:40:28.590Z,55424.09
2022-10-12T20:42:57.441Z,55447.97
2022-10-12T20:45:26.046Z,55585.22
2022-10-12T20:47:54.644Z,55674.75
2022-10-12T20:50:23.459Z,55790.13
2022-10-12T20:52:53.271Z,55617.06
2022-10-12T20:55:22.055Z,55539.47
2022-10-12T20:57:50.526Z,55764.25
2022-10-12T21:00:19.299Z,55750.34
2022-10-12T21:02:48.014Z,55837.88
2022-10-12T21:05:16.643Z,55744.38
2022-10-12T21:07:45.047Z,55887.59
2022-10-12T21:10:15.276Z,56064.69
2022-10-12T21:12:43.800Z,56128.34
2022-10-12T21:15:12.518Z,56124.34
2022-10-12T21:17:41.267Z,56249.72
2022-10-12T21:20:10.567Z,56558.13
2022-10-12T21:22:39.191Z,57047.66
2022-10-12T21:25:08.936Z,57184.97
2022-10-12T21:27:38.927Z,57230.75
2022-10-12T21:30:08.331Z,57389.97
2022-10-12T21:32:37.106Z,57688.53
2022-10-12T21:35:06.327Z,58070.75
2022-10-12T21:37:34.980Z,58158.34
2022-10-12T21:40:03.834Z,58881.06
2022-10-12T21:42:32.272Z,58827.31
2022-10-12T21:45:02.307Z,58453.00
2022-10-12T21:47:31.164Z,59159.84
2022-10-12T21:49:59.656Z,60163.66
2022-10-12T21:52:28.259Z,60380.78
2022-10-12T21:54:56.700Z,60295.13
2022-10-12T21:57:25.314Z,60715.47
2022-10-12T21:59:53.834Z,60699.53
2022-10-12T22:02:23.714Z,61078.09
2022-10-12T22:04:52.372Z,61287.31
2022-10-12T22:07:20.904Z,62481.13
2022-10-12T22:09:49.750Z,64323.44
2022-10-12T22:12:18.862Z,64582.72
2022-10-12T22:14:48.084Z,64806.13
2022-10-12T22:17:19.629Z,65029.53
2022-10-12T22:19:49.717Z,66498.03
2022-10-12T22:22:18.300Z,68019.09
2022-10-12T22:24:46.935Z,67260.47
2022-10-12T22:27:15.310Z,66709.59
2022-10-12T22:29:43.764Z,65869.47
2022-10-12T22:32:12.523Z,65608.09
2022-10-12T22:34:40.916Z,65059.47
2022-10-12T22:37:10.827Z,64688.44
2022-10-12T22:39:39.865Z,64281.56
2022-10-12T22:42:08.478Z,64371.31
2022-10-12T22:44:37.068Z,63976.44
2022-10-12T22:47:06.105Z,64094.09
2022-10-12T22:49:34.489Z,64243.69
2022-10-12T22:52:03.026Z,63737.16
2022-10-12T22:54:33.457Z,63178.84
2022-10-12T22:57:02.059Z,63244.66
2022-10-12T22:59:30.510Z,63908.63
2022-10-12T23:01:59.049Z,64345.38
2022-10-12T23:04:28.735Z,64235.69
2022-10-12T23:06:57.230Z,64215.75
2022-10-12T23:09:28.454Z,64187.84
2022-10-12T23:11:59.734Z,64317.47
2022-10-12T23:14:28.224Z,64189.81
2022-10-12T23:16:56.752Z,64762.25
2022-10-12T23:19:25.651Z,64608.66
2022-10-12T23:21:54.422Z,64247.66
2022-10-12T23:24:22.933Z,64461.06
2022-10-12T23:26:53.926Z,64618.63
2022-10-12T23:29:23.910Z,64698.41
2022-10-12T23:31:52.345Z,64373.31
2022-10-12T23:34:20.703Z,64405.22
2022-10-12T23:36:50.135Z,65181.16
2022-10-12T23:39:18.948Z,66015.13
2022-10-12T23:41:47.383Z,66991.00
2022-10-12T23:44:16.126Z,68326.56
2022-10-12T23:46:46.205Z,68606.13
2022-10-12T23:49:14.608Z,67747.56
2022-10-12T23:51:43.231Z,66761.47
2022-10-12T23:54:11.826Z,66871.25
2022-10-12T23:56:40.277Z,67360.28
2022-10-12T23:59:08.832Z,68019.09
